»·PEaware :: N37WH KSAN-KMRY

N37WH :: KSAN-KMRY

FLIGHT INFORMATION

Flight Status: Arrived
Operator: Privately registered:
United States
More flights under this callsign
Pilot: Nate M. (12976)
Aircraft: GULFSTREAM G-1159C GULFSTREAM 4
(GLF4)
More flights by this aircraft type
Origin: KSAN San Diego Intl-Lindbergh
United States
Destination: KMRY Monterey Peninsula
United States
More flights between these airports :: More routes between these airports
Route: +PADRZ1 IKAYE RIZIN SPLNT STOKD BSR
File this flight plan on PilotEdge
Remarks:
Altitude:
(Current/Filed)
30,000ft
Speed:
(Current/Filed)
450kts
Departed: 06-Oct-17 12:25 PM
Arrived: 06-Oct-17 01:19 PM
Distance/Time
Traveled:
326nm/0:54
Distance/Time
To Go:
Arrived

Flight Plot

Page will automatically refresh every two minutes.

Flight plan parsing failed; only flown route is shown


Map Options




Map Legend


Flown Route
Filed Route
Departure Airport
Arrival Airport
Navaid (VOR, NDB)
Fix

Horizontal Profiles

Position Reports

Time Latitude Longitude Heading Altitude Ground
Speed
06-Oct-17 12:00 32.732824 -117.178435 354 25ft 0kts
06-Oct-17 12:01 32.732824 -117.178435 354 25ft 0kts
06-Oct-17 12:02 32.732824 -117.178435 354 25ft 0kts
06-Oct-17 12:03 32.732824 -117.178435 354 25ft 0kts
06-Oct-17 12:04 32.732824 -117.178435 354 25ft 0kts
06-Oct-17 12:05 32.732824 -117.178435 354 25ft 0kts
06-Oct-17 12:06 32.732824 -117.178435 354 25ft 0kts
06-Oct-17 12:07 32.732824 -117.178435 354 25ft 0kts
06-Oct-17 12:08 32.732824 -117.178435 354 25ft 0kts
06-Oct-17 12:09 32.732824 -117.178435 354 25ft 0kts
06-Oct-17 12:10 32.732824 -117.178435 354 25ft 0kts
06-Oct-17 12:11 32.732824 -117.178435 354 25ft 0kts
06-Oct-17 12:12 32.732824 -117.178435 354 25ft 0kts
06-Oct-17 12:13 32.732824 -117.178435 354 25ft 0kts
06-Oct-17 12:14 32.732824 -117.178435 354 25ft 0kts
06-Oct-17 12:15 32.732824 -117.178435 354 25ft 0kts
06-Oct-17 12:16 32.732824 -117.178435 354 25ft 0kts
06-Oct-17 12:17 32.732824 -117.178435 354 25ft 0kts
06-Oct-17 12:18 32.732824 -117.178435 354 25ft 0kts
06-Oct-17 12:19 32.732824 -117.178435 354 25ft 0kts
06-Oct-17 12:20 32.732824 -117.178435 354 25ft 0kts
06-Oct-17 12:21 32.732824 -117.178435 354 25ft 0kts
06-Oct-17 12:22 32.732824 -117.178435 354 25ft 0kts
06-Oct-17 12:23 32.732824 -117.178435 354 25ft 0kts
06-Oct-17 12:24 32.732824 -117.178435 354 25ft 0kts
06-Oct-17 12:25 32.732824 -117.178435 354 25ft 0kts
06-Oct-17 12:26 32.732861 -117.178185 137 25ft 8kts
06-Oct-17 12:27 32.731091 -117.175730 128 25ft 0kts
06-Oct-17 12:28 32.730959 -117.175534 130 25ft 15kts
06-Oct-17 12:29 32.736804 -117.201617 298 806ft 182kts
06-Oct-17 12:30 32.771317 -117.265378 299 3202ft 275kts
06-Oct-17 12:31 32.813521 -117.343457 306 5716ft 283kts
06-Oct-17 12:32 32.860708 -117.417756 306 7916ft 290kts
06-Oct-17 12:33 32.909308 -117.494688 306 10129ft 286kts
06-Oct-17 12:34 32.962836 -117.577694 307 12690ft 348kts
06-Oct-17 12:35 33.026296 -117.675277 307 14922ft 403kts
06-Oct-17 12:36 33.112753 -117.779411 319 14993ft 479kts
06-Oct-17 12:37 33.213859 -117.886212 315 16950ft 483kts
06-Oct-17 12:38 33.307723 -117.998041 314 19421ft 474kts
06-Oct-17 12:39 33.399194 -118.107447 313 21873ft 462kts
06-Oct-17 12:40 33.489168 -118.214939 312 23332ft 459kts
06-Oct-17 12:41 33.578456 -118.322373 312 25324ft 452kts
06-Oct-17 12:42 33.666276 -118.428411 311 27334ft 453kts
06-Oct-17 12:43 33.755158 -118.536034 310 29334ft 450kts
06-Oct-17 12:44 33.842713 -118.642490 310 30006ft 452kts
06-Oct-17 12:45 33.903630 -118.716697 310 30007ft 454kts
06-Oct-17 12:46 34.006624 -118.842548 310 30009ft 452kts
06-Oct-17 12:47 34.079553 -118.931928 310 30022ft 454kts
06-Oct-17 12:48 34.146619 -119.018592 298 30026ft 448kts
06-Oct-17 12:49 34.213080 -119.146545 299 30022ft 457kts
06-Oct-17 12:50 34.279991 -119.276984 298 30028ft 457kts
06-Oct-17 12:51 34.346653 -119.407717 298 30026ft 456kts
06-Oct-17 12:52 34.416057 -119.535984 309 30045ft 459kts
06-Oct-17 12:53 34.472329 -119.606753 310 30018ft 462kts
06-Oct-17 12:54 34.561911 -119.717285 310 30016ft 463kts
06-Oct-17 12:55 34.651702 -119.828301 310 30017ft 463kts
06-Oct-17 12:56 34.741465 -119.939650 310 30020ft 463kts
06-Oct-17 12:57 34.823480 -120.041707 310 30022ft 463kts
06-Oct-17 12:58 34.890036 -120.124549 310 30033ft 464kts
06-Oct-17 12:59 34.980052 -120.236910 311 30038ft 464kts
06-Oct-17 13:00 35.069893 -120.349661 312 30037ft 466kts
06-Oct-17 13:01 35.164490 -120.458263 315 30031ft 468kts
06-Oct-17 13:02 35.249078 -120.553325 315 30026ft 468kts
06-Oct-17 13:03 35.344944 -120.661372 315 30025ft 468kts
06-Oct-17 13:04 35.439187 -120.767939 315 30001ft 462kts
06-Oct-17 13:05 35.530270 -120.872986 315 27371ft 431kts
06-Oct-17 13:06 35.615550 -120.972800 316 24875ft 432kts
06-Oct-17 13:07 35.701498 -121.073609 317 24105ft 410kts
06-Oct-17 13:08 35.781572 -121.167323 317 22595ft 399kts
06-Oct-17 13:09 35.853683 -121.252291 317 20423ft 411kts
06-Oct-17 13:10 35.936528 -121.350292 317 17913ft 415kts
06-Oct-17 13:11 36.005785 -121.432463 317 15443ft 381kts
06-Oct-17 13:12 36.070493 -121.509422 316 12395ft 304kts
06-Oct-17 13:13 36.131157 -121.581797 316 10051ft 291kts
06-Oct-17 13:14 36.191349 -121.649734 323 10002ft 294kts
06-Oct-17 13:15 36.253619 -121.708373 323 9420ft 270kts
06-Oct-17 13:16 36.312033 -121.763672 323 8294ft 270kts
06-Oct-17 13:17 36.377459 -121.779189 22 6300ft 256kts
06-Oct-17 13:18 36.442773 -121.745719 22 5992ft 242kts
06-Oct-17 13:19 36.493578 -121.719718 22 5347ft 203kts
06-Oct-17 13:20 36.536933 -121.736472 324 4050ft 231kts
06-Oct-17 13:21 36.561607 -121.771945 297 2688ft 200kts
06-Oct-17 13:22 36.577630 -121.817386 293 1021ft 191kts
06-Oct-17 13:23 36.589516 -121.852331 291 263ft 14kts
06-Oct-17 13:24 36.589345 -121.855943 249 263ft 11kts

Navigation Log

Ident Type
Flight plan parsing failed, navigation log unavailable